createdAt,value
2022-10-20T00:01:40.454Z,79.94
2022-10-20T00:04:10.182Z,79.90
2022-10-20T00:06:39.935Z,80.46
2022-10-20T00:09:10.118Z,80.04
2022-10-20T00:11:39.955Z,80.10
2022-10-20T00:14:12.943Z,79.85
2022-10-20T00:16:42.878Z,80.67
2022-10-20T00:19:12.640Z,80.58
2022-10-20T00:21:42.392Z,79.72
2022-10-20T00:24:12.140Z,80.12
2022-10-20T00:26:41.895Z,80.40
2022-10-20T00:29:14.255Z,79.94
2022-10-20T00:31:43.998Z,80.48
2022-10-20T00:34:14.039Z,80.58
2022-10-20T00:36:47.473Z,80.39
2022-10-20T00:39:20.210Z,80.86
2022-10-20T00:41:49.943Z,81.47
2022-10-20T00:44:54.125Z,81.63
2022-10-20T00:47:34.134Z,82.78
2022-10-20T00:50:08.984Z,82.94
2022-10-20T00:52:40.928Z,83.95
2022-10-20T00:55:12.936Z,83.60
2022-10-20T00:57:45.259Z,83.51
2022-10-20T01:00:19.517Z,83.40
2022-10-20T01:02:49.618Z,83.54
2022-10-20T01:05:19.624Z,83.22
2022-10-20T01:07:49.460Z,82.74
2022-10-20T01:10:20.019Z,83.76
2022-10-20T01:12:55.721Z,83.87
2022-10-20T01:15:36.997Z,83.72
2022-10-20T01:18:14.263Z,82.64
2022-10-20T01:21:19.348Z,83.57
2022-10-20T01:24:08.239Z,85.21
2022-10-20T01:27:02.577Z,86.25
2022-10-20T01:29:39.223Z,86.76
2022-10-20T01:32:19.008Z,85.61
2022-10-20T01:34:57.487Z,84.91
2022-10-20T01:37:48.441Z,86.24
2022-10-20T01:40:25.345Z,85.91
2022-10-20T01:42:58.951Z,85.79
2022-10-20T01:45:35.326Z,85.58
2022-10-20T01:48:08.446Z,85.31
2022-10-20T01:50:39.673Z,85.01
2022-10-20T01:53:09.466Z,84.73
2022-10-20T01:55:41.107Z,84.51
2022-10-20T01:58:34.768Z,83.91
2022-10-20T02:01:16.566Z,84.32
2022-10-20T02:03:54.624Z,84.27
2022-10-20T02:06:40.517Z,83.57
2022-10-20T02:09:15.885Z,83.95
2022-10-20T02:11:52.114Z,84.07
2022-10-20T02:14:24.524Z,83.97
2022-10-20T02:17:01.103Z,84.42
2022-10-20T02:19:36.274Z,84.74
2022-10-20T02:22:07.983Z,84.45
2022-10-20T02:24:40.980Z,84.02
2022-10-20T02:27:15.810Z,83.93
2022-10-20T02:29:51.217Z,84.96
2022-10-20T02:32:25.542Z,85.05
2022-10-20T02:34:55.289Z,84.72
2022-10-20T02:37:25.061Z,84.79
2022-10-20T02:39:54.833Z,84.45
2022-10-20T02:42:24.649Z,84.86
2022-10-20T02:44:55.765Z,84.67
2022-10-20T02:47:28.063Z,85.81
2022-10-20T02:49:57.797Z,85.57
2022-10-20T02:52:27.602Z,84.95
2022-10-20T02:54:57.415Z,85.74
2022-10-20T02:57:27.271Z,85.62
2022-10-20T02:59:57.441Z,85.71
2022-10-20T03:02:29.750Z,86.19
2022-10-20T03:04:59.558Z,86.25
2022-10-20T03:07:29.403Z,86.09
2022-10-20T03:09:59.227Z,86.81
2022-10-20T03:12:31.517Z,86.48
2022-10-20T03:15:02.105Z,87.25
2022-10-20T03:17:34.794Z,87.52
2022-10-20T03:20:04.939Z,87.25
2022-10-20T03:22:34.677Z,87.78
2022-10-20T03:25:04.460Z,87.38
2022-10-20T03:27:34.336Z,87.49
2022-10-20T03:30:04.378Z,87.29
2022-10-20T03:32:36.952Z,87.57
2022-10-20T03:35:07.457Z,87.56
2022-10-20T03:37:37.210Z,87.25
2022-10-20T03:40:07.987Z,87.12
2022-10-20T03:42:38.015Z,86.92
2022-10-20T03:45:09.376Z,86.70
2022-10-20T03:47:41.734Z,86.27
2022-10-20T03:50:12.456Z,85.99
2022-10-20T03:52:42.167Z,86.37
2022-10-20T03:55:12.230Z,86.59
2022-10-20T03:57:41.970Z,86.23
2022-10-20T04:00:13.047Z,85.34
2022-10-20T04:02:47.903Z,85.01
2022-10-20T04:05:20.344Z,84.88
2022-10-20T04:07:50.825Z,84.90
2022-10-20T04:10:20.724Z,86.04
2022-10-20T04:12:50.479Z,87.02
2022-10-20T04:15:20.878Z,87.28
2022-10-20T04:17:53.217Z,87.94
2022-10-20T04:20:23.316Z,88.72
2022-10-20T04:22:53.047Z,88.22
2022-10-20T04:25:22.842Z,88.17
2022-10-20T04:27:52.579Z,89.15
2022-10-20T04:30:22.325Z,89.15
2022-10-20T04:32:54.679Z,88.78
2022-10-20T04:35:24.385Z,88.05
2022-10-20T04:37:54.112Z,88.02
2022-10-20T04:40:23.879Z,87.57
2022-10-20T04:42:53.612Z,87.25
2022-10-20T04:45:23.346Z,87.93
2022-10-20T04:47:55.734Z,87.91
2022-10-20T04:50:25.501Z,88.24
2022-10-20T04:53:10.216Z,88.53
2022-10-20T04:55:39.982Z,88.75
2022-10-20T04:58:09.730Z,89.54
2022-10-20T05:00:41.687Z,89.53
2022-10-20T05:03:15.062Z,89.78
2022-10-20T05:05:44.987Z,89.83
2022-10-20T05:08:14.762Z,89.54
2022-10-20T05:10:46.308Z,88.75
2022-10-20T05:13:17.143Z,89.03
2022-10-20T05:15:48.011Z,89.51
2022-10-20T05:18:21.426Z,89.16
2022-10-20T05:21:07.977Z,89.05
2022-10-20T05:23:38.815Z,89.16
2022-10-20T05:26:11.515Z,89.41
2022-10-20T05:28:42.048Z,89.41
2022-10-20T05:31:13.402Z,89.25
2022-10-20T05:33:47.400Z,89.10
2022-10-20T05:36:21.573Z,89.51
2022-10-20T05:38:57.945Z,89.50
2022-10-20T05:41:33.333Z,89.24
2022-10-20T05:44:09.838Z,88.57
2022-10-20T05:46:42.752Z,89.24
2022-10-20T05:49:18.787Z,89.72
2022-10-20T05:51:49.711Z,89.97
2022-10-20T05:54:20.573Z,90.14
2022-10-20T05:56:52.378Z,89.49
2022-10-20T05:59:24.163Z,89.40
2022-10-20T06:01:54.970Z,89.50
2022-10-20T06:04:29.694Z,89.15
2022-10-20T06:06:59.850Z,89.06
2022-10-20T06:09:29.688Z,89.24
2022-10-20T06:11:59.502Z,88.25
2022-10-20T06:14:30.558Z,88.26
2022-10-20T06:17:00.781Z,87.81
2022-10-20T06:19:34.221Z,86.87
2022-10-20T06:22:06.792Z,87.18
2022-10-20T06:24:41.360Z,86.08
2022-10-20T06:27:11.154Z,85.83
2022-10-20T06:29:40.976Z,85.23
2022-10-20T06:35:09.863Z,84.71
2022-10-20T06:37:39.689Z,85.96
2022-10-20T06:40:10.480Z,87.27
2022-10-20T06:42:40.441Z,87.65
2022-10-20T06:45:14.361Z,87.47
2022-10-20T06:47:52.352Z,87.84
2022-10-20T06:50:25.798Z,88.15
2022-10-20T06:52:55.557Z,88.62
2022-10-20T06:55:27.383Z,88.11
2022-10-20T06:57:58.120Z,88.66
2022-10-20T07:02:59.599Z,88.33
2022-10-20T07:05:32.028Z,88.30
2022-10-20T07:08:05.272Z,87.99
2022-10-20T07:10:35.084Z,88.41
2022-10-20T07:13:04.883Z,88.47
2022-10-20T07:15:36.675Z,87.59
2022-10-20T07:18:10.242Z,88.41
2022-10-20T07:20:43.676Z,88.30
2022-10-20T07:23:13.751Z,88.55
2022-10-20T07:25:43.584Z,88.71
2022-10-20T07:28:14.428Z,88.89
2022-10-20T07:30:45.248Z,88.34
2022-10-20T07:33:15.095Z,87.51
2022-10-20T07:35:47.549Z,87.51
2022-10-20T07:38:18.427Z,86.73
2022-10-20T07:40:48.253Z,86.28
2022-10-20T07:43:18.985Z,86.73
2022-10-20T07:45:49.799Z,85.86
2022-10-20T07:48:19.557Z,86.84
2022-10-20T07:50:52.043Z,86.95
2022-10-20T07:53:21.926Z,86.23
2022-10-20T07:55:52.736Z,85.64
2022-10-20T07:58:22.508Z,85.55
2022-10-20T08:00:53.260Z,86.26
2022-10-20T08:03:24.084Z,85.95
2022-10-20T08:05:56.501Z,85.44
2022-10-20T08:08:26.351Z,84.82
2022-10-20T08:10:58.152Z,84.98
2022-10-20T08:13:29.503Z,84.98
2022-10-20T08:15:59.442Z,83.84
2022-10-20T08:18:31.532Z,84.39
2022-10-20T08:21:15.392Z,84.28
2022-10-20T08:23:46.663Z,84.77
2022-10-20T08:26:20.715Z,84.64
2022-10-20T08:28:50.578Z,84.90
2022-10-20T08:31:20.794Z,84.22
2022-10-20T08:33:53.157Z,84.20
2022-10-20T08:36:28.194Z,84.15
2022-10-20T08:39:02.106Z,84.13
2022-10-20T08:42:02.539Z,84.12
2022-10-20T08:44:31.792Z,84.14
2022-10-20T08:47:04.690Z,84.46
2022-10-20T08:49:37.888Z,84.44
2022-10-20T08:52:16.607Z,84.19
2022-10-20T08:54:48.585Z,83.70
2022-10-20T08:57:25.988Z,83.74
2022-10-20T08:59:59.198Z,84.09
2022-10-20T09:02:35.794Z,83.79
2022-10-20T09:05:09.540Z,83.55
2022-10-20T09:07:45.081Z,83.79
2022-10-20T09:10:26.986Z,83.61
2022-10-20T09:12:57.063Z,82.84
2022-10-20T09:15:29.216Z,82.89
2022-10-20T09:18:03.563Z,83.07
2022-10-20T09:20:38.839Z,82.40
2022-10-20T09:23:38.951Z,81.52
2022-10-20T09:26:25.143Z,81.44
2022-10-20T09:29:14.363Z,80.30
2022-10-20T09:31:48.047Z,79.78
2022-10-20T09:34:24.544Z,78.12
2022-10-20T09:37:05.932Z,77.18
2022-10-20T09:39:45.965Z,75.81
2022-10-20T09:42:21.777Z,76.80
2022-10-20T09:44:56.295Z,77.17
2022-10-20T09:47:29.581Z,76.78
2022-10-20T09:50:03.688Z,75.97
2022-10-20T09:52:44.603Z,75.71
2022-10-20T09:55:27.943Z,76.24
2022-10-20T09:58:01.829Z,75.98
2022-10-20T10:00:37.630Z,75.40
2022-10-20T10:03:21.360Z,75.14
2022-10-20T10:05:54.049Z,74.77
2022-10-20T10:08:27.575Z,74.19
2022-10-20T10:11:07.168Z,74.38
2022-10-20T10:13:44.747Z,74.70
2022-10-20T10:16:18.164Z,74.97
2022-10-20T10:19:00.715Z,74.21
2022-10-20T10:21:32.669Z,74.19
2022-10-20T10:24:05.016Z,74.47
2022-10-20T10:26:49.507Z,73.73
2022-10-20T10:29:26.793Z,73.00
2022-10-20T10:32:03.413Z,73.02
2022-10-20T10:35:02.532Z,72.65
2022-10-20T10:37:35.228Z,72.31
2022-10-20T10:40:17.817Z,71.53
2022-10-20T10:43:18.351Z,71.23
2022-10-20T10:45:55.480Z,70.67
2022-10-20T10:49:00.922Z,70.93
2022-10-20T10:51:46.278Z,70.30
2022-10-20T10:54:33.853Z,69.87
2022-10-20T10:57:12.748Z,70.07
2022-10-20T10:59:46.924Z,69.73
2022-10-20T11:02:42.499Z,68.36
2022-10-20T11:05:34.152Z,68.80
2022-10-20T11:08:15.609Z,67.92
2022-10-20T11:10:58.575Z,68.60
2022-10-20T11:13:38.896Z,68.35
2022-10-20T11:16:24.069Z,67.14
2022-10-20T11:19:31.921Z,66.59
2022-10-20T11:22:15.860Z,67.18
2022-10-20T11:24:52.201Z,67.93
2022-10-20T11:27:28.363Z,66.52
2022-10-20T11:30:05.274Z,65.64
2022-10-20T11:32:42.755Z,65.58
2022-10-20T11:35:24.840Z,65.73
2022-10-20T11:38:04.540Z,64.81
2022-10-20T11:40:43.201Z,64.64
2022-10-20T11:43:20.439Z,64.44
2022-10-20T11:45:55.183Z,64.63
2022-10-20T11:48:33.612Z,64.45
2022-10-20T11:51:25.433Z,64.39
2022-10-20T11:54:09.124Z,65.80
2022-10-20T11:56:56.340Z,64.32
2022-10-20T11:59:48.119Z,64.58
2022-10-20T12:02:41.299Z,64.80
2022-10-20T12:05:47.712Z,63.61
2022-10-20T12:08:40.160Z,63.47
2022-10-20T12:11:18.722Z,64.10
2022-10-20T12:14:01.025Z,63.95
2022-10-20T12:17:07.734Z,63.29
2022-10-20T12:19:39.127Z,63.08
2022-10-20T12:22:45.237Z,62.23
2022-10-20T12:25:37.825Z,62.70
2022-10-20T12:28:36.171Z,62.89
2022-10-20T12:31:08.211Z,63.29
2022-10-20T12:33:42.293Z,62.98
2022-10-20T12:36:31.665Z,63.26
2022-10-20T12:39:31.443Z,63.54
2022-10-20T12:42:05.203Z,63.47
2022-10-20T12:44:46.083Z,62.65
2022-10-20T12:47:23.505Z,62.78
2022-10-20T12:49:59.383Z,63.17
2022-10-20T12:52:33.585Z,63.97
2022-10-20T12:55:09.716Z,63.52
2022-10-20T12:57:45.190Z,63.01
2022-10-20T13:00:45.852Z,61.98
2022-10-20T13:03:55.300Z,61.08
2022-10-20T13:06:44.488Z,62.41
2022-10-20T13:09:26.808Z,62.76
2022-10-20T13:12:27.096Z,62.95
2022-10-20T13:15:01.385Z,62.89
2022-10-20T13:17:52.347Z,62.02
2022-10-20T13:20:32.264Z,63.15
2022-10-20T13:23:03.513Z,63.70
2022-10-20T13:25:43.022Z,63.32
2022-10-20T13:28:24.462Z,62.34
2022-10-20T13:31:11.603Z,63.05
2022-10-20T13:34:04.043Z,63.48
2022-10-20T13:36:51.472Z,63.43
2022-10-20T13:39:28.727Z,64.04
2022-10-20T13:42:10.684Z,64.07
2022-10-20T13:44:54.834Z,63.97
2022-10-20T13:47:45.715Z,63.47
2022-10-20T13:50:20.177Z,64.04
2022-10-20T13:52:52.751Z,64.73
2022-10-20T13:55:26.020Z,64.59
2022-10-20T13:57:59.642Z,64.28
2022-10-20T14:00:36.185Z,64.18
2022-10-20T14:03:17.956Z,65.06
2022-10-20T14:05:48.855Z,65.20
2022-10-20T14:08:23.256Z,65.18
2022-10-20T14:10:57.256Z,65.58
2022-10-20T14:13:30.244Z,65.82
2022-10-20T14:16:07.033Z,65.54
2022-10-20T14:18:40.235Z,65.35
2022-10-20T14:21:18.894Z,67.08
2022-10-20T14:23:51.956Z,68.11
2022-10-20T14:26:26.080Z,68.34
2022-10-20T14:28:57.116Z,68.19
2022-10-20T14:31:30.711Z,67.37
2022-10-20T14:34:01.701Z,67.82
2022-10-20T14:36:33.848Z,67.83
2022-10-20T14:39:04.837Z,69.44
2022-10-20T14:41:38.260Z,69.67
2022-10-20T14:44:20.398Z,68.92
2022-10-20T14:47:07.356Z,69.59
2022-10-20T14:49:43.571Z,69.50
2022-10-20T14:52:23.980Z,69.52
2022-10-20T14:54:55.261Z,70.52
2022-10-20T14:57:47.263Z,69.58
2022-10-20T15:00:30.532Z,69.43
2022-10-20T15:03:07.136Z,70.71
2022-10-20T15:05:42.627Z,70.36
2022-10-20T15:08:28.812Z,70.29
2022-10-20T15:11:00.344Z,70.76
2022-10-20T15:13:33.243Z,71.39
2022-10-20T15:16:05.427Z,72.33
2022-10-20T15:18:39.393Z,72.70
2022-10-20T15:21:11.948Z,72.17
2022-10-20T15:23:41.784Z,71.99
2022-10-20T15:26:15.736Z,72.54
2022-10-20T15:28:48.142Z,71.87
2022-10-20T15:31:24.316Z,67.60
2022-10-20T15:33:58.107Z,69.05
2022-10-20T15:36:33.292Z,69.58
2022-10-20T15:39:04.500Z,69.73
2022-10-20T15:41:36.985Z,70.38
2022-10-20T15:44:15.287Z,70.68
2022-10-20T15:46:47.523Z,71.33
2022-10-20T15:49:19.950Z,71.02
2022-10-20T15:51:52.061Z,71.78
2022-10-20T15:54:23.976Z,72.14
2022-10-20T15:56:53.772Z,72.64
2022-10-20T15:59:24.656Z,73.64
2022-10-20T16:01:54.419Z,74.68
2022-10-20T16:04:31.392Z,75.69
2022-10-20T16:07:03.182Z,77.39
2022-10-20T16:09:34.241Z,77.58
2022-10-20T16:12:05.047Z,78.79
2022-10-20T16:14:38.074Z,80.57
2022-10-20T16:17:07.940Z,84.04
2022-10-20T16:19:41.400Z,85.47
2022-10-20T16:22:12.180Z,87.27
2022-10-20T16:24:41.928Z,88.71
2022-10-20T16:27:11.887Z,89.06
2022-10-20T16:29:44.121Z,89.70
2022-10-20T16:32:17.070Z,89.49
2022-10-20T16:34:50.506Z,86.74
2022-10-20T16:37:20.271Z,86.85
2022-10-20T16:39:51.079Z,84.19
2022-10-20T16:42:21.959Z,83.52
2022-10-20T16:44:52.792Z,83.23
2022-10-20T16:47:22.579Z,83.88
2022-10-20T16:49:55.278Z,84.75
2022-10-20T16:52:26.843Z,86.20
2022-10-20T16:54:59.535Z,86.73
2022-10-20T16:57:38.165Z,87.72
2022-10-20T17:00:10.484Z,87.81
2022-10-20T17:02:43.029Z,87.71
2022-10-20T17:05:19.705Z,87.33
2022-10-20T17:07:49.575Z,87.20
2022-10-20T17:10:21.436Z,87.41
2022-10-20T17:12:53.224Z,87.67
2022-10-20T17:15:22.995Z,87.82
2022-10-20T17:17:52.833Z,88.69
2022-10-20T17:20:25.214Z,88.23
2022-10-20T17:22:57.209Z,88.38
2022-10-20T17:25:27.051Z,88.77
2022-10-20T17:27:58.450Z,90.52
2022-10-20T17:30:29.557Z,91.60
2022-10-20T17:32:59.503Z,92.11
2022-10-20T17:35:34.119Z,92.45
2022-10-20T17:38:04.750Z,93.86
2022-10-20T17:40:39.153Z,93.40
2022-10-20T17:43:08.949Z,93.87
2022-10-20T17:45:40.172Z,96.22
2022-10-20T17:48:10.625Z,96.78
2022-10-20T17:50:44.124Z,96.95
2022-10-20T17:53:13.957Z,97.11
2022-10-20T17:55:44.811Z,97.21
2022-10-20T17:58:14.663Z,98.41
2022-10-20T18:00:55.912Z,98.79
2022-10-20T18:03:27.210Z,98.19
2022-10-20T18:06:00.596Z,98.24
2022-10-20T18:08:31.397Z,99.26
2022-10-20T18:11:02.203Z,99.59
2022-10-20T18:13:32.928Z,99.12
2022-10-20T18:16:07.199Z,97.63
2022-10-20T18:18:37.120Z,97.73
2022-10-20T18:21:13.002Z,97.80
2022-10-20T18:23:46.616Z,97.42
2022-10-20T18:26:20.704Z,97.10
2022-10-20T18:28:51.401Z,96.89
2022-10-20T18:31:23.315Z,97.51
2022-10-20T18:33:56.376Z,97.61
2022-10-20T18:36:31.091Z,97.21
2022-10-20T18:39:02.027Z,97.27
2022-10-20T18:41:37.327Z,97.30
2022-10-20T18:44:10.727Z,97.54
2022-10-20T18:46:40.850Z,97.81
2022-10-20T18:49:14.185Z,97.01
2022-10-20T18:51:48.565Z,97.53
2022-10-20T18:54:23.296Z,97.05
2022-10-20T18:56:53.099Z,97.59
2022-10-20T18:59:23.066Z,96.54
2022-10-20T19:01:52.970Z,96.85
2022-10-20T19:04:22.804Z,97.53
2022-10-20T19:06:56.474Z,96.85
2022-10-20T19:09:26.392Z,97.21
2022-10-20T19:11:57.184Z,97.67
2022-10-20T19:14:26.936Z,97.69
2022-10-20T19:16:56.753Z,98.20
2022-10-20T19:19:26.543Z,97.95
2022-10-20T19:21:58.906Z,98.96
2022-10-20T19:24:29.624Z,99.62
2022-10-20T19:27:25.060Z,99.94
2022-10-20T19:29:51.903Z,99.76
2022-10-20T19:32:21.750Z,99.29
2022-10-20T19:34:52.636Z,98.72
2022-10-20T19:37:26.061Z,99.11
2022-10-20T19:39:55.892Z,98.71
2022-10-20T19:42:25.743Z,99.15
2022-10-20T19:44:55.714Z,99.03
2022-10-20T19:47:25.543Z,100.00
2022-10-20T19:49:56.358Z,100.00
2022-10-20T19:52:29.709Z,100.00
2022-10-20T19:55:01.270Z,100.00
2022-10-20T19:57:31.049Z,100.00
2022-10-20T20:00:01.856Z,100.00
2022-10-20T20:02:35.312Z,100.00
2022-10-20T20:05:05.423Z,100.00
2022-10-20T20:07:38.096Z,100.00
2022-10-20T20:10:10.238Z,100.00
2022-10-20T20:12:40.020Z,100.00
2022-10-20T20:15:10.156Z,100.00
2022-10-20T20:17:40.242Z,100.00
2022-10-20T20:20:10.465Z,100.00
2022-10-20T20:22:42.876Z,100.00
2022-10-20T20:25:12.877Z,100.00
2022-10-20T20:27:42.975Z,100.00
2022-10-20T20:30:13.567Z,100.00
2022-10-20T20:32:46.909Z,100.00
2022-10-20T20:35:20.586Z,100.00
2022-10-20T20:37:53.971Z,100.00
2022-10-20T20:40:24.004Z,100.00
2022-10-20T20:42:56.043Z,100.00
2022-10-20T20:45:26.838Z,100.00
2022-10-20T20:47:56.643Z,100.00
2022-10-20T20:50:26.499Z,100.00
2022-10-20T20:52:58.855Z,100.00
2022-10-20T20:55:28.752Z,100.00
2022-10-20T20:57:58.984Z,100.00
2022-10-20T21:00:28.824Z,100.00
2022-10-20T21:02:58.599Z,100.00
2022-10-20T21:05:30.234Z,100.00
2022-10-20T21:08:02.732Z,100.00
2022-10-20T21:10:33.655Z,100.00
2022-10-20T21:13:03.519Z,100.00
2022-10-20T21:15:33.327Z,100.00
2022-10-20T21:18:03.069Z,100.00
2022-10-20T21:20:32.904Z,100.00
2022-10-20T21:23:05.292Z,100.00
2022-10-20T21:25:35.053Z,100.00
2022-10-20T21:28:04.765Z,100.00
2022-10-20T21:30:34.929Z,100.00
2022-10-20T21:33:04.676Z,100.00
2022-10-20T21:35:34.391Z,100.00
2022-10-20T21:38:06.781Z,100.00
2022-10-20T21:40:36.500Z,100.00
2022-10-20T21:43:08.896Z,100.00
2022-10-20T21:45:38.732Z,100.00
2022-10-20T21:48:08.940Z,100.00
2022-10-20T21:50:39.105Z,100.00
2022-10-20T21:53:11.499Z,100.00
2022-10-20T21:55:41.307Z,100.00
2022-10-20T21:58:11.068Z,100.00
2022-10-20T22:00:40.871Z,100.00
2022-10-20T22:03:10.644Z,100.00
2022-10-20T22:05:40.429Z,100.00
2022-10-20T22:08:12.846Z,100.00
2022-10-20T22:10:42.691Z,100.00
2022-10-20T22:13:12.479Z,100.00
2022-10-20T22:15:42.930Z,100.00
2022-10-20T22:18:12.709Z,100.00
2022-10-20T22:20:42.532Z,100.00
2022-10-20T22:23:15.164Z,100.00
2022-10-20T22:25:44.932Z,100.00
2022-10-20T22:28:14.674Z,100.00
2022-10-20T22:30:44.481Z,100.00
2022-10-20T22:33:14.231Z,100.00
2022-10-20T22:35:43.950Z,100.00
2022-10-20T22:38:16.536Z,100.00
2022-10-20T22:40:46.289Z,100.00
2022-10-20T22:43:16.107Z,100.00
2022-10-20T22:45:45.834Z,100.00
2022-10-20T22:48:15.617Z,100.00
2022-10-20T22:50:45.358Z,100.00
2022-10-20T22:53:17.654Z,100.00
2022-10-20T22:55:47.646Z,100.00
2022-10-20T22:58:17.425Z,99.84
2022-10-20T23:00:47.222Z,99.75
2022-10-20T23:03:17.052Z,100.00
2022-10-20T23:05:46.875Z,100.00
2022-10-20T23:08:19.200Z,100.00
2022-10-20T23:10:57.923Z,100.00
2022-10-20T23:13:27.844Z,100.00
2022-10-20T23:15:57.577Z,100.00
2022-10-20T23:18:27.280Z,100.00
2022-10-20T23:20:58.244Z,100.00
2022-10-20T23:23:31.228Z,100.00
2022-10-20T23:26:03.798Z,100.00
2022-10-20T23:28:34.729Z,100.00
2022-10-20T23:31:12.052Z,100.00
2022-10-20T23:33:43.257Z,100.00
2022-10-20T23:36:14.398Z,100.00
2022-10-20T23:38:47.651Z,100.00
2022-10-20T23:41:17.772Z,100.00
2022-10-20T23:43:47.528Z,100.00
2022-10-20T23:46:17.270Z,100.00
2022-10-20T23:48:46.999Z,100.00
2022-10-20T23:51:16.736Z,100.00
2022-10-20T23:53:49.094Z,100.00
2022-10-20T23:56:18.828Z,100.00
2022-10-20T23:58:48.559Z,100.00
